Time;durP1;ratioP1;P1;durP2;ratioP2;P2;SDS_P1;SDS_P2;PMS_P1;PMS_P2;Temp;Humidity;BMP_temperature;BMP_pressure;BME280_temperature;BME280_humidity;BME280_pressure;Samples;Min_cycle;Max_cycle;Signal;HPM_P1;HPM_P2
2023/04/30 00:01:53;;;;;;;;;;;9.50;99.90;;;;;;5075962;28;20010;-53
2023/04/30 00:04:18;;;;;;;;;;;9.40;99.90;;;;;;5076152;28;19986;-53
2023/04/30 00:06:44;;;;;;;;;;;9.40;99.90;;;;;;5076281;28;19913;-53
2023/04/30 00:09:10;;;;;;;;;;;9.30;99.90;;;;;;5076328;28;19912;-53
2023/04/30 00:11:36;;;;;;;;;;;9.30;99.90;;;;;;5075882;28;19935;-53
2023/04/30 00:14:02;;;;;;;;;;;9.30;99.90;;;;;;5075943;28;19999;-53
2023/04/30 00:16:28;;;;;;;;;;;9.30;99.90;;;;;;5075823;28;19920;-53
2023/04/30 00:18:54;;;;;;;;;;;9.30;99.90;;;;;;5075697;28;19923;-53
2023/04/30 00:21:20;;;;;;;;;;;9.20;99.90;;;;;;5075986;28;19916;-53
2023/04/30 00:23:45;;;;;;;;;;;9.20;99.90;;;;;;5075728;28;19956;-53
2023/04/30 00:26:11;;;;;;;;;;;9.10;99.90;;;;;;5075764;28;20264;-53
2023/04/30 00:28:39;;;;;;;;;;;9.10;99.90;;;;;;5057780;28;19951;-53
2023/04/30 00:31:07;;;;;;;;;;;9.10;99.90;;;;;;5075742;28;19974;-53
2023/04/30 00:33:34;;;;;;;;;;;9.20;99.90;;;;;;5057684;28;19919;-53
2023/04/30 00:35:59;;;;;;;;;;;9.20;99.90;;;;;;5075590;28;20194;-53
2023/04/30 00:38:25;;;;;;;;;;;9.30;99.90;;;;;;5075655;28;20189;-53
2023/04/30 00:40:52;;;;;;;;;;;9.40;99.90;;;;;;5075175;28;19913;-53
2023/04/30 00:43:17;;;;;;;;;;;9.50;99.90;;;;;;5075477;28;19920;-53
2023/04/30 00:45:43;;;;;;;;;;;9.40;99.90;;;;;;5075365;28;19966;-52
2023/04/30 00:48:09;;;;;;;;;;;9.30;99.90;;;;;;5075400;28;19940;-53
2023/04/30 00:50:35;;;;;;;;;;;9.20;99.90;;;;;;5075581;28;19957;-53
2023/04/30 00:53:01;;;;;;;;;;;9.00;99.90;;;;;;5090982;28;19962;-53
2023/04/30 00:55:27;;;;;;;;;;;9.00;99.90;;;;;;5057291;28;20330;-53
2023/04/30 00:57:53;;;;;;;;;;;8.90;99.90;;;;;;5075184;28;19920;-53
2023/04/30 01:00:19;;;;;;;;;;;8.80;99.90;;;;;;5075367;28;19943;-53
2023/04/30 01:02:45;;;;;;;;;;;8.70;99.90;;;;;;5075173;28;19969;-53
2023/04/30 01:05:11;;;;;;;;;;;8.70;99.90;;;;;;5057095;28;19920;-53
2023/04/30 01:07:40;;;;;;;;;;;8.60;99.90;;;;;;5057303;28;19916;-53
2023/04/30 01:10:06;;;;;;;;;;;8.60;99.90;;;;;;5056864;28;19958;-53
2023/04/30 01:12:36;;;;;;;;;;;8.60;99.90;;;;;;5057059;28;19916;-53
2023/04/30 01:15:05;;;;;;;;;;;8.50;99.90;;;;;;5074976;28;19923;-53
2023/04/30 01:17:38;;;;;;;;;;;8.50;99.90;;;;;;5074798;28;20342;-53
2023/04/30 01:20:05;;;;;;;;;;;8.70;99.90;;;;;;5056939;28;20003;-53
2023/04/30 01:22:37;;;;;;;;;;;8.60;99.90;;;;;;5074890;28;19916;-53
2023/04/30 01:25:18;;;;;;;;;;;8.60;99.90;;;;;;5090540;28;19917;-53
2023/04/30 01:28:04;;;;;;;;;;;8.60;99.90;;;;;;5056836;28;19923;-53
2023/04/30 01:30:30;;;;;;;;;;;8.50;99.90;;;;;;5056874;28;19924;-53
2023/04/30 01:32:56;;;;;;;;;;;8.50;99.90;;;;;;5074865;28;19913;-53
2023/04/30 01:35:27;;;;;;;;;;;8.50;99.90;;;;;;5074892;28;19935;-53
2023/04/30 01:38:02;;;;;;;;;;;8.40;99.90;;;;;;5074676;28;19920;-53
2023/04/30 01:40:37;;;;;;;;;;;8.40;99.90;;;;;;5074663;28;20235;-53
2023/04/30 01:43:16;;;;;;;;;;;8.30;99.90;;;;;;5074890;28;19920;-53
2023/04/30 01:46:00;;;;;;;;;;;8.20;99.90;;;;;;5074700;28;19916;-53
2023/04/30 01:48:42;;;;;;;;;;;8.20;99.90;;;;;;5074593;28;19938;-53
2023/04/30 01:51:10;;;;;;;;;;;8.20;99.90;;;;;;5056761;28;20459;-53
2023/04/30 01:53:40;;;;;;;;;;;8.20;99.90;;;;;;5077606;28;19920;-53
2023/04/30 01:56:10;;;;;;;;;;;8.20;99.90;;;;;;5060666;28;19913;-53
2023/04/30 01:58:36;;;;;;;;;;;8.20;99.90;;;;;;5060629;28;20025;-53
2023/04/30 02:01:03;;;;;;;;;;;8.20;99.90;;;;;;5060518;28;19912;-53
2023/04/30 02:03:29;;;;;;;;;;;8.20;99.90;;;;;;5060603;28;19996;-53
2023/04/30 02:05:57;;;;;;;;;;;8.20;99.90;;;;;;5078499;28;19912;-53
2023/04/30 02:08:23;;;;;;;;;;;8.20;99.90;;;;;;5078328;28;20262;-53
2023/04/30 02:10:49;;;;;;;;;;;8.20;99.90;;;;;;5078547;28;19923;-53
2023/04/30 02:13:16;;;;;;;;;;;8.30;99.90;;;;;;5078437;28;20273;-53
2023/04/30 02:15:42;;;;;;;;;;;8.30;99.90;;;;;;5060261;28;20410;-53
2023/04/30 02:18:07;;;;;;;;;;;8.30;99.90;;;;;;5056731;28;19920;-53
2023/04/30 02:20:33;;;;;;;;;;;8.30;99.90;;;;;;5057064;28;19913;-53
2023/04/30 02:22:59;;;;;;;;;;;8.40;99.90;;;;;;5058133;28;19917;-53
2023/04/30 02:25:25;;;;;;;;;;;8.40;99.90;;;;;;5058260;28;19920;-53
2023/04/30 02:27:51;;;;;;;;;;;8.20;99.90;;;;;;5058112;28;19909;-53
2023/04/30 02:30:18;;;;;;;;;;;8.10;99.90;;;;;;5057993;28;20374;-53
2023/04/30 02:32:46;;;;;;;;;;;8.10;99.90;;;;;;5058051;28;19914;-53
2023/04/30 02:35:12;;;;;;;;;;;8.20;99.90;;;;;;5056610;28;19978;-53
2023/04/30 02:37:38;;;;;;;;;;;8.20;99.90;;;;;;5057869;28;19924;-53
2023/04/30 02:40:05;;;;;;;;;;;8.20;99.90;;;;;;5057900;28;19913;-53
2023/04/30 02:42:31;;;;;;;;;;;8.20;99.90;;;;;;5057713;28;19913;-53
2023/04/30 02:44:57;;;;;;;;;;;8.10;99.90;;;;;;5057776;28;19916;-53
2023/04/30 02:47:22;;;;;;;;;;;8.20;99.90;;;;;;5057735;28;20431;-53
2023/04/30 02:49:48;;;;;;;;;;;8.20;99.90;;;;;;5057715;28;19908;-53
2023/04/30 02:52:14;;;;;;;;;;;8.20;99.90;;;;;;5057573;28;19948;-53
2023/04/30 02:54:40;;;;;;;;;;;8.10;99.90;;;;;;5057771;28;19917;-53
2023/04/30 02:57:06;;;;;;;;;;;8.10;99.90;;;;;;5057482;28;19916;-53
2023/04/30 02:59:32;;;;;;;;;;;8.10;99.90;;;;;;5057490;28;19916;-53
2023/04/30 03:01:57;;;;;;;;;;;8.10;99.90;;;;;;5057445;28;20321;-53
2023/04/30 03:04:23;;;;;;;;;;;8.20;99.90;;;;;;5055950;28;19912;-53
2023/04/30 03:06:49;;;;;;;;;;;8.20;99.90;;;;;;5057346;28;19944;-53
2023/04/30 03:09:15;;;;;;;;;;;8.20;99.90;;;;;;5056076;28;20330;-53
2023/04/30 03:11:41;;;;;;;;;;;8.20;99.90;;;;;;5055862;28;19951;-53
2023/04/30 03:14:07;;;;;;;;;;;8.20;99.90;;;;;;5057187;28;19928;-53
2023/04/30 03:16:33;;;;;;;;;;;8.30;99.90;;;;;;5055885;28;19923;-53
2023/04/30 03:18:59;;;;;;;;;;;8.40;99.90;;;;;;5074696;28;20381;-53
2023/04/30 03:21:25;;;;;;;;;;;8.50;99.90;;;;;;5092619;28;19946;-53
2023/04/30 03:23:51;;;;;;;;;;;8.50;99.90;;;;;;5092672;28;19912;-53
2023/04/30 03:26:17;;;;;;;;;;;8.50;99.90;;;;;;5076879;28;19923;-53
2023/04/30 03:28:43;;;;;;;;;;;8.40;99.90;;;;;;5076816;28;19920;-53
2023/04/30 03:31:09;;;;;;;;;;;8.40;99.90;;;;;;5076897;28;20057;-53
2023/04/30 03:33:34;;;;;;;;;;;8.50;99.90;;;;;;5076938;28;19915;-53
2023/04/30 03:36:00;;;;;;;;;;;8.60;99.90;;;;;;5058859;28;19908;-53
2023/04/30 03:38:26;;;;;;;;;;;8.70;99.90;;;;;;5058944;28;19912;-53
2023/04/30 03:40:52;;;;;;;;;;;8.90;99.90;;;;;;5076673;28;20259;-53
2023/04/30 03:43:17;;;;;;;;;;;8.90;99.90;;;;;;5076756;28;19938;-53
2023/04/30 03:45:43;;;;;;;;;;;8.90;99.90;;;;;;5076576;28;20365;-53
2023/04/30 03:48:09;;;;;;;;;;;9.00;99.90;;;;;;5076685;28;19913;-53
2023/04/30 03:50:35;;;;;;;;;;;9.00;99.90;;;;;;5058704;28;19913;-53
2023/04/30 03:53:01;;;;;;;;;;;9.10;99.90;;;;;;5092036;28;19958;-53
2023/04/30 03:55:27;;;;;;;;;;;9.10;99.90;;;;;;5058445;28;19916;-53
2023/04/30 03:57:53;;;;;;;;;;;9.20;99.90;;;;;;5058501;28;19916;-53
2023/04/30 04:00:19;;;;;;;;;;;9.40;99.90;;;;;;5058641;28;19920;-53
2023/04/30 04:02:48;;;;;;;;;;;9.50;99.90;;;;;;5058514;28;19924;-53
2023/04/30 04:05:14;;;;;;;;;;;9.50;99.90;;;;;;5076351;28;19920;-53
2023/04/30 04:07:40;;;;;;;;;;;9.60;99.90;;;;;;5058404;28;20308;-53
2023/04/30 04:10:06;;;;;;;;;;;9.60;99.90;;;;;;5075947;28;19916;-53
2023/04/30 04:12:32;;;;;;;;;;;9.60;99.90;;;;;;5076237;28;19916;-53
2023/04/30 04:14:58;;;;;;;;;;;9.60;99.90;;;;;;5057468;28;19924;-53
2023/04/30 04:17:24;;;;;;;;;;;9.70;99.90;;;;;;5054397;28;19916;-53
2023/04/30 04:19:50;;;;;;;;;;;9.70;99.90;;;;;;5054866;28;20340;-53
2023/04/30 04:22:17;;;;;;;;;;;9.80;99.90;;;;;;5054658;28;19917;-53
2023/04/30 04:24:44;;;;;;;;;;;9.70;99.90;;;;;;5054646;28;19916;-53
2023/04/30 04:27:13;;;;;;;;;;;9.70;99.90;;;;;;5054623;28;20335;-53
2023/04/30 04:29:41;;;;;;;;;;;9.80;99.90;;;;;;5054504;28;19920;-53
2023/04/30 04:32:06;;;;;;;;;;;9.90;99.90;;;;;;5055906;28;19912;-53
2023/04/30 04:34:32;;;;;;;;;;;9.90;99.90;;;;;;5054493;28;20366;-53
2023/04/30 04:36:58;;;;;;;;;;;9.90;99.90;;;;;;5055559;28;19999;-53
2023/04/30 04:39:25;;;;;;;;;;;10.00;99.90;;;;;;5055561;28;20274;-52
2023/04/30 04:41:50;;;;;;;;;;;9.90;99.90;;;;;;5054382;28;19913;-53
2023/04/30 04:44:17;;;;;;;;;;;10.00;99.90;;;;;;5054300;28;19912;-53
2023/04/30 04:46:44;;;;;;;;;;;10.10;99.90;;;;;;5054093;28;20396;-53
2023/04/30 04:49:11;;;;;;;;;;;10.10;99.90;;;;;;5054264;28;19916;-53
2023/04/30 04:51:38;;;;;;;;;;;10.10;99.90;;;;;;5054036;28;20012;-53
2023/04/30 04:54:05;;;;;;;;;;;10.00;99.90;;;;;;5053889;28;19923;-53
2023/04/30 04:56:31;;;;;;;;;;;10.00;99.90;;;;;;5053995;28;20437;-53
2023/04/30 04:58:57;;;;;;;;;;;10.10;99.90;;;;;;5053919;28;20054;-53
2023/04/30 05:01:23;;;;;;;;;;;10.10;99.90;;;;;;5055327;28;19913;-53
2023/04/30 05:03:49;;;;;;;;;;;10.20;99.90;;;;;;5055283;28;19913;-53
2023/04/30 05:06:17;;;;;;;;;;;10.40;99.90;;;;;;5053791;28;19917;-53
2023/04/30 05:08:43;;;;;;;;;;;10.40;99.90;;;;;;5054985;28;20008;-53
2023/04/30 05:11:09;;;;;;;;;;;10.40;99.90;;;;;;5055076;28;20118;-53
2023/04/30 05:13:35;;;;;;;;;;;10.40;99.90;;;;;;5054964;28;19913;-53
2023/04/30 05:16:01;;;;;;;;;;;10.60;99.90;;;;;;5054865;28;19966;-53
2023/04/30 05:18:26;;;;;;;;;;;10.50;99.90;;;;;;5067947;28;19916;-53
2023/04/30 05:20:52;;;;;;;;;;;10.50;99.90;;;;;;5074908;28;19913;-53
2023/04/30 05:23:18;;;;;;;;;;;10.70;99.90;;;;;;5075029;28;19913;-53
2023/04/30 05:25:44;;;;;;;;;;;10.70;99.90;;;;;;5074926;28;19913;-53
2023/04/30 05:28:10;;;;;;;;;;;10.80;99.90;;;;;;5073847;28;19923;-53
2023/04/30 05:30:36;;;;;;;;;;;10.90;99.90;;;;;;5074893;28;19913;-53
2023/04/30 05:33:02;;;;;;;;;;;10.90;99.90;;;;;;5074914;28;19958;-53
2023/04/30 05:35:29;;;;;;;;;;;11.20;99.90;;;;;;5074639;28;19912;-53
2023/04/30 05:37:56;;;;;;;;;;;11.30;99.90;;;;;;5074815;28;19927;-53
2023/04/30 05:40:21;;;;;;;;;;;11.50;99.90;;;;;;5074816;28;19912;-53
2023/04/30 05:42:47;;;;;;;;;;;11.70;99.90;;;;;;5074683;28;19919;-53
2023/04/30 05:45:15;;;;;;;;;;;11.80;99.90;;;;;;5074808;28;19956;-53
2023/04/30 05:47:41;;;;;;;;;;;11.90;99.90;;;;;;5074740;28;19923;-53
2023/04/30 05:50:08;;;;;;;;;;;12.00;99.90;;;;;;5074583;28;20365;-53
2023/04/30 05:52:34;;;;;;;;;;;12.10;99.90;;;;;;5074604;28;19912;-53
2023/04/30 05:55:00;;;;;;;;;;;12.20;99.90;;;;;;5074815;28;19938;-53
2023/04/30 05:57:26;;;;;;;;;;;12.20;99.90;;;;;;5074414;28;19955;-53
2023/04/30 05:59:53;;;;;;;;;;;12.20;99.90;;;;;;5074720;28;19912;-53
2023/04/30 06:02:19;;;;;;;;;;;12.30;99.90;;;;;;5074716;28;19912;-53
2023/04/30 06:04:44;;;;;;;;;;;12.40;99.90;;;;;;5074382;28;19928;-53
2023/04/30 06:07:10;;;;;;;;;;;12.40;99.90;;;;;;5074582;28;19923;-53
2023/04/30 06:09:36;;;;;;;;;;;12.50;99.90;;;;;;5074327;28;19912;-53
2023/04/30 06:12:02;;;;;;;;;;;12.60;99.90;;;;;;5074311;28;19930;-53
2023/04/30 06:14:28;;;;;;;;;;;12.50;99.90;;;;;;5074485;28;19922;-53
2023/04/30 06:16:54;;;;;;;;;;;12.50;99.90;;;;;;5074136;28;20007;-53
2023/04/30 06:19:20;;;;;;;;;;;12.50;99.90;;;;;;5074148;28;19920;-53
2023/04/30 06:21:46;;;;;;;;;;;12.50;99.90;;;;;;5074356;28;19917;-53
2023/04/30 06:24:12;;;;;;;;;;;12.50;99.90;;;;;;5074347;28;19979;-53
2023/04/30 06:26:37;;;;;;;;;;;12.50;99.90;;;;;;5074289;28;19920;-53
2023/04/30 06:29:04;;;;;;;;;;;12.60;99.90;;;;;;5074302;28;19912;-53
2023/04/30 06:31:29;;;;;;;;;;;12.80;99.90;;;;;;5073869;28;20004;-53
2023/04/30 06:33:55;;;;;;;;;;;12.70;99.90;;;;;;5074006;28;20362;-53
2023/04/30 06:36:21;;;;;;;;;;;12.40;99.90;;;;;;5074320;28;19927;-53
2023/04/30 06:38:47;;;;;;;;;;;12.70;99.90;;;;;;5075625;28;20474;-53
2023/04/30 06:41:13;;;;;;;;;;;12.90;99.90;;;;;;5077791;28;19916;-53
2023/04/30 06:43:38;;;;;;;;;;;13.00;99.90;;;;;;5077914;28;20362;-53
2023/04/30 06:46:05;;;;;;;;;;;13.00;99.90;;;;;;5077634;28;20008;-53
2023/04/30 06:48:31;;;;;;;;;;;13.00;99.90;;;;;;5077691;28;20019;-53
2023/04/30 06:50:57;;;;;;;;;;;12.90;99.90;;;;;;5077658;28;19960;-53
2023/04/30 06:53:23;;;;;;;;;;;12.90;99.90;;;;;;5077670;28;20007;-53
2023/04/30 06:55:49;;;;;;;;;;;13.00;99.90;;;;;;5077740;28;19960;-53
2023/04/30 06:58:15;;;;;;;;;;;12.90;99.90;;;;;;5077477;28;19987;-53
2023/04/30 07:00:41;;;;;;;;;;;13.00;99.90;;;;;;5077502;28;19916;-53
2023/04/30 07:03:07;;;;;;;;;;;12.80;99.90;;;;;;5077515;28;19917;-53
2023/04/30 07:05:33;;;;;;;;;;;12.90;99.90;;;;;;5077409;28;20362;-53
2023/04/30 07:08:00;;;;;;;;;;;13.00;99.90;;;;;;5077343;28;19919;-53
2023/04/30 07:10:26;;;;;;;;;;;13.00;99.90;;;;;;5077241;28;19909;-53
2023/04/30 07:12:52;;;;;;;;;;;13.10;99.90;;;;;;5077401;28;19966;-53
2023/04/30 07:15:17;;;;;;;;;;;13.30;99.90;;;;;;5077291;28;19923;-53
2023/04/30 07:17:43;;;;;;;;;;;13.50;99.90;;;;;;5076779;28;20366;-53
2023/04/30 07:20:09;;;;;;;;;;;13.50;99.90;;;;;;5077200;28;19912;-53
2023/04/30 07:22:35;;;;;;;;;;;13.80;99.90;;;;;;5077195;28;20006;-53
2023/04/30 07:25:01;;;;;;;;;;;14.10;99.90;;;;;;5077111;28;19950;-53
2023/04/30 07:27:27;;;;;;;;;;;14.40;99.90;;;;;;5077049;28;19919;-53
2023/04/30 07:29:53;;;;;;;;;;;14.60;99.90;;;;;;5076849;28;19924;-53
2023/04/30 07:32:19;;;;;;;;;;;14.80;99.90;;;;;;5077097;28;19920;-53
2023/04/30 07:34:45;;;;;;;;;;;15.10;99.90;;;;;;5076839;28;19927;-53
2023/04/30 07:37:10;;;;;;;;;;;15.50;99.90;;;;;;5076566;28;19932;-53
2023/04/30 07:39:36;;;;;;;;;;;15.80;99.90;;;;;;5076871;28;19913;-53
2023/04/30 07:42:02;;;;;;;;;;;16.20;99.90;;;;;;5076623;28;20389;-53
2023/04/30 07:44:29;;;;;;;;;;;16.50;99.90;;;;;;5076576;28;19916;-53
2023/04/30 07:46:54;;;;;;;;;;;16.70;99.90;;;;;;5076742;28;20366;-53
2023/04/30 07:49:20;;;;;;;;;;;16.80;99.90;;;;;;5076272;28;19917;-53
2023/04/30 07:51:46;;;;;;;;;;;16.90;99.90;;;;;;5075893;28;19915;-53
2023/04/30 07:54:12;;;;;;;;;;;17.00;99.90;;;;;;5076480;28;19991;-53
2023/04/30 07:56:38;;;;;;;;;;;17.10;99.90;;;;;;5076603;28;19917;-53
2023/04/30 07:59:04;;;;;;;;;;;17.20;99.90;;;;;;5076413;28;19981;-53
2023/04/30 08:01:30;;;;;;;;;;;17.40;99.90;;;;;;5076306;28;19921;-53
2023/04/30 08:03:56;;;;;;;;;;;17.40;99.90;;;;;;5076250;28;19919;-53
2023/04/30 08:06:22;;;;;;;;;;;17.60;99.90;;;;;;5076295;28;20358;-53
2023/04/30 08:08:48;;;;;;;;;;;17.80;99.90;;;;;;5076194;28;19916;-53
2023/04/30 08:11:14;;;;;;;;;;;18.30;99.90;;;;;;5076036;28;19938;-53
2023/04/30 08:13:41;;;;;;;;;;;18.70;99.90;;;;;;5075962;28;19916;-53
2023/04/30 08:16:07;;;;;;;;;;;19.00;99.90;;;;;;5076076;28;20286;-54
2023/04/30 08:18:33;;;;;;;;;;;19.20;99.90;;;;;;5075720;28;20278;-53
2023/04/30 08:21:00;;;;;;;;;;;19.30;99.90;;;;;;5075790;28;20370;-53
2023/04/30 08:23:26;;;;;;;;;;;19.60;99.10;;;;;;5075993;28;20274;-53
2023/04/30 08:25:52;;;;;;;;;;;19.80;98.00;;;;;;5076138;28;20007;-53
2023/04/30 08:28:18;;;;;;;;;;;20.50;99.10;;;;;;5075777;28;19955;-53
2023/04/30 08:30:44;;;;;;;;;;;20.70;94.50;;;;;;5075765;28;19913;-53
2023/04/30 08:33:10;;;;;;;;;;;20.70;92.80;;;;;;5075607;28;19912;-53
2023/04/30 08:35:36;;;;;;;;;;;20.60;93.40;;;;;;5075717;28;19958;-54
2023/04/30 08:38:02;;;;;;;;;;;20.90;93.20;;;;;;5075475;28;19997;-54
2023/04/30 08:40:29;;;;;;;;;;;20.70;92.40;;;;;;5075497;28;19955;-54
2023/04/30 08:43:02;;;;;;;;;;;21.00;92.10;;;;;;5075378;28;19919;-53
2023/04/30 08:45:28;;;;;;;;;;;21.40;91.80;;;;;;5075452;28;19916;-53
2023/04/30 08:47:56;;;;;;;;;;;21.50;90.40;;;;;;5075380;28;19962;-54
2023/04/30 08:50:21;;;;;;;;;;;21.60;90.90;;;;;;5075442;28;19944;-53
2023/04/30 08:52:47;;;;;;;;;;;20.60;90.30;;;;;;5075594;28;19923;-53
2023/04/30 08:55:13;;;;;;;;;;;21.10;90.80;;;;;;5075378;28;19919;-54
2023/04/30 08:57:39;;;;;;;;;;;21.80;87.00;;;;;;5075184;28;19923;-53
2023/04/30 09:00:06;;;;;;;;;;;21.50;85.90;;;;;;5075389;28;19982;-53
2023/04/30 09:02:32;;;;;;;;;;;20.80;87.90;;;;;;5074861;28;19912;-53
2023/04/30 09:04:58;;;;;;;;;;;20.70;87.90;;;;;;5075097;28;20025;-53
2023/04/30 09:07:27;;;;;;;;;;;20.70;89.10;;;;;;5075210;28;19912;-53
2023/04/30 09:09:52;;;;;;;;;;;20.50;89.10;;;;;;5074888;28;20267;-53
2023/04/30 09:12:18;;;;;;;;;;;20.10;90.60;;;;;;5075274;28;19924;-53
2023/04/30 09:15:04;;;;;;;;;;;20.00;91.10;;;;;;5075065;28;19908;-53
2023/04/30 09:17:30;;;;;;;;;;;20.00;91.90;;;;;;5074564;28;20006;-53
2023/04/30 09:20:10;;;;;;;;;;;19.80;91.40;;;;;;5074976;28;20336;-53
2023/04/30 09:22:36;;;;;;;;;;;19.90;92.40;;;;;;5074884;28;20441;-53
2023/04/30 09:25:02;;;;;;;;;;;19.90;92.90;;;;;;5074937;28;19917;-53
2023/04/30 09:27:28;;;;;;;;;;;20.20;91.90;;;;;;5075002;28;19962;-53
2023/04/30 09:29:55;;;;;;;;;;;20.30;90.90;;;;;;5074758;28;20290;-53
2023/04/30 09:32:21;;;;;;;;;;;20.40;91.60;;;;;;5074920;28;19916;-53
2023/04/30 09:34:47;;;;;;;;;;;20.70;90.70;;;;;;5074982;28;19908;-53
2023/04/30 09:37:13;;;;;;;;;;;20.70;89.60;;;;;;5074599;28;19931;-53
2023/04/30 09:39:53;;;;;;;;;;;20.70;88.60;;;;;;5074900;28;19915;-53
2023/04/30 09:42:19;;;;;;;;;;;20.70;88.50;;;;;;5074792;28;19999;-54
2023/04/30 09:44:45;;;;;;;;;;;21.00;88.10;;;;;;5074556;28;19955;-53
2023/04/30 09:47:18;;;;;;;;;;;21.30;88.50;;;;;;5074940;28;19913;-53
2023/04/30 09:49:50;;;;;;;;;;;21.50;86.00;;;;;;5074667;28;20290;-53
2023/04/30 09:52:16;;;;;;;;;;;21.60;83.90;;;;;;5074455;28;19923;-54
2023/04/30 09:54:43;;;;;;;;;;;21.90;82.20;;;;;;5074673;28;19913;-53
2023/04/30 09:57:10;;;;;;;;;;;21.90;81.50;;;;;;5074776;28;19917;-53
2023/04/30 09:59:38;;;;;;;;;;;21.80;79.70;;;;;;5074611;28;19942;-53
2023/04/30 10:02:05;;;;;;;;;;;21.90;82.10;;;;;;5074253;28;19912;-53
2023/04/30 10:04:35;;;;;;;;;;;21.90;79.60;;;;;;5074468;28;19916;-53
2023/04/30 10:07:21;;;;;;;;;;;22.10;77.20;;;;;;5074506;28;19912;-53
2023/04/30 10:09:49;;;;;;;;;;;22.20;78.70;;;;;;5073908;28;19916;-54
2023/04/30 10:12:19;;;;;;;;;;;22.80;78.70;;;;;;5074257;28;20010;-54
2023/04/30 10:14:49;;;;;;;;;;;23.20;75.60;;;;;;5077331;28;19917;-53
2023/04/30 10:17:16;;;;;;;;;;;22.80;74.60;;;;;;5078050;28;19920;-54
2023/04/30 10:19:44;;;;;;;;;;;23.10;72.70;;;;;;5078122;28;19916;-53
2023/04/30 10:22:10;;;;;;;;;;;23.50;67.90;;;;;;5078008;28;19912;-53
2023/04/30 10:24:36;;;;;;;;;;;23.50;65.30;;;;;;5078280;28;20054;-54
2023/04/30 10:27:02;;;;;;;;;;;23.00;67.90;;;;;;5077908;28;20384;-54
2023/04/30 10:29:28;;;;;;;;;;;23.70;69.20;;;;;;5078017;28;19939;-54
2023/04/30 10:31:55;;;;;;;;;;;24.40;65.40;;;;;;5077916;28;20331;-54
2023/04/30 10:34:39;;;;;;;;;;;24.50;63.60;;;;;;5077896;28;20436;-54
2023/04/30 10:37:15;;;;;;;;;;;24.90;64.50;;;;;;5077897;28;19920;-54
2023/04/30 10:39:41;;;;;;;;;;;25.30;58.40;;;;;;5077718;28;19939;-54
2023/04/30 10:42:08;;;;;;;;;;;25.90;59.70;;;;;;5077684;28;19912;-54
2023/04/30 10:44:37;;;;;;;;;;;26.10;59.30;;;;;;5078085;28;19912;-54
2023/04/30 10:47:04;;;;;;;;;;;26.10;56.30;;;;;;5077771;28;19924;-54
2023/04/30 10:49:30;;;;;;;;;;;26.20;56.20;;;;;;5077562;28;19912;-54
2023/04/30 10:52:00;;;;;;;;;;;26.10;53.30;;;;;;5077664;28;19913;-54
2023/04/30 10:54:27;;;;;;;;;;;25.70;53.20;;;;;;5077757;28;19912;-54
2023/04/30 10:56:55;;;;;;;;;;;24.60;55.60;;;;;;5077473;28;20014;-54
2023/04/30 10:59:21;;;;;;;;;;;24.50;55.80;;;;;;5077653;28;19916;-54
2023/04/30 11:01:54;;;;;;;;;;;23.70;57.10;;;;;;5077352;28;19975;-53
2023/04/30 11:04:19;;;;;;;;;;;23.70;57.30;;;;;;5077523;28;19916;-54
2023/04/30 11:06:52;;;;;;;;;;;22.90;56.70;;;;;;5077302;28;19976;-53
2023/04/30 11:09:35;;;;;;;;;;;22.50;56.80;;;;;;5077155;28;19916;-54
2023/04/30 11:12:02;;;;;;;;;;;22.50;60.70;;;;;;5077319;28;20337;-54
2023/04/30 11:14:30;;;;;;;;;;;22.70;62.30;;;;;;5077297;28;19916;-54
2023/04/30 11:16:57;;;;;;;;;;;23.30;62.60;;;;;;5076753;28;19923;-54
2023/04/30 11:19:24;;;;;;;;;;;23.40;61.70;;;;;;5077202;28;19920;-54
2023/04/30 11:22:02;;;;;;;;;;;23.00;58.90;;;;;;5077101;28;20286;-54
2023/04/30 11:24:46;;;;;;;;;;;22.60;62.60;;;;;;5077047;28;20026;-53
2023/04/30 11:27:12;;;;;;;;;;;22.30;60.70;;;;;;5077039;28;19920;-53
2023/04/30 11:29:39;;;;;;;;;;;22.20;62.00;;;;;;5076826;28;19999;-53
2023/04/30 11:32:05;;;;;;;;;;;22.00;63.80;;;;;;5076881;28;19920;-53
2023/04/30 11:34:33;;;;;;;;;;;21.80;66.20;;;;;;5076977;28;20374;-53
2023/04/30 11:37:00;;;;;;;;;;;21.70;67.70;;;;;;5076686;28;19944;-53
2023/04/30 11:39:27;;;;;;;;;;;21.70;69.20;;;;;;5076735;28;19947;-53
2023/04/30 11:41:53;;;;;;;;;;;21.60;69.70;;;;;;5076721;28;19958;-53
2023/04/30 11:44:25;;;;;;;;;;;21.60;69.40;;;;;;5076488;28;19913;-53
2023/04/30 11:46:51;;;;;;;;;;;22.00;68.90;;;;;;5076729;28;20008;-53
2023/04/30 11:49:17;;;;;;;;;;;22.90;68.50;;;;;;5076744;28;20404;-53
2023/04/30 11:51:47;;;;;;;;;;;22.70;63.90;;;;;;5076543;28;20374;-54
2023/04/30 11:54:13;;;;;;;;;;;23.00;59.40;;;;;;5076445;28;19983;-54
2023/04/30 11:56:38;;;;;;;;;;;23.10;60.00;;;;;;5076446;28;19986;-54
2023/04/30 11:59:11;;;;;;;;;;;23.30;58.90;;;;;;5076395;28;19913;-54
2023/04/30 12:01:37;;;;;;;;;;;22.70;65.90;;;;;;5076386;28;19947;-53
2023/04/30 12:04:03;;;;;;;;;;;22.80;68.70;;;;;;5076312;28;19947;-53
2023/04/30 12:06:29;;;;;;;;;;;22.00;76.00;;;;;;5076114;28;19935;-53
2023/04/30 12:08:56;;;;;;;;;;;21.40;85.00;;;;;;5076143;28;19912;-53
2023/04/30 12:11:24;;;;;;;;;;;21.30;84.30;;;;;;5076346;28;19999;-53
2023/04/30 12:13:51;;;;;;;;;;;20.80;90.40;;;;;;5075922;28;19920;-53
2023/04/30 12:16:16;;;;;;;;;;;21.10;95.20;;;;;;5076034;28;20316;-53
2023/04/30 12:18:42;;;;;;;;;;;21.00;95.60;;;;;;5075788;28;19927;-53
2023/04/30 12:21:08;;;;;;;;;;;21.10;98.10;;;;;;5075886;28;19920;-53
2023/04/30 12:23:35;;;;;;;;;;;21.30;98.50;;;;;;5075827;28;19991;-53
2023/04/30 12:26:00;;;;;;;;;;;21.60;93.80;;;;;;5075843;28;20388;-53
2023/04/30 12:28:27;;;;;;;;;;;21.90;93.70;;;;;;5075548;28;19912;-53
2023/04/30 12:30:52;;;;;;;;;;;22.20;95.70;;;;;;5075823;28;20007;-53
2023/04/30 12:33:18;;;;;;;;;;;22.40;91.90;;;;;;5075754;28;19963;-54
2023/04/30 12:35:44;;;;;;;;;;;22.10;90.90;;;;;;5075270;28;19918;-54
2023/04/30 12:38:10;;;;;;;;;;;22.70;85.90;;;;;;5075398;28;19924;-53
2023/04/30 12:40:36;;;;;;;;;;;22.80;75.00;;;;;;5075528;28;19974;-54
2023/04/30 12:43:06;;;;;;;;;;;23.30;72.00;;;;;;5075531;28;19916;-54
2023/04/30 12:45:41;;;;;;;;;;;23.70;67.90;;;;;;5075583;28;19966;-53
2023/04/30 12:48:07;;;;;;;;;;;23.70;62.70;;;;;;5075498;28;19917;-54
2023/04/30 12:50:33;;;;;;;;;;;23.70;66.90;;;;;;5075275;28;19939;-54
2023/04/30 12:53:03;;;;;;;;;;;24.30;58.00;;;;;;5075147;28;19912;-54
2023/04/30 12:55:30;;;;;;;;;;;24.00;55.90;;;;;;5075383;28;20358;-54
2023/04/30 12:58:09;;;;;;;;;;;23.50;55.40;;;;;;5075081;28;20209;-54
2023/04/30 13:00:48;;;;;;;;;;;23.20;61.20;;;;;;5075411;28;19999;-54
2023/04/30 13:03:15;;;;;;;;;;;23.30;63.50;;;;;;5075051;28;20007;-54
2023/04/30 13:05:41;;;;;;;;;;;22.80;65.60;;;;;;5075073;28;20342;-54
2023/04/30 13:08:08;;;;;;;;;;;22.80;74.00;;;;;;5075408;28;19944;-53
2023/04/30 13:10:33;;;;;;;;;;;22.80;81.10;;;;;;5074909;28;20160;-53
2023/04/30 13:12:59;;;;;;;;;;;22.40;76.40;;;;;;5075036;28;20102;-53
2023/04/30 13:15:25;;;;;;;;;;;22.20;76.80;;;;;;5075224;28;19916;-53
2023/04/30 13:17:52;;;;;;;;;;;21.70;80.70;;;;;;5074532;28;19975;-53
2023/04/30 13:20:18;;;;;;;;;;;21.80;86.00;;;;;;5074974;28;19916;-53
2023/04/30 13:22:44;;;;;;;;;;;22.10;79.10;;;;;;5075031;28;20313;-54
2023/04/30 13:25:11;;;;;;;;;;;22.40;79.70;;;;;;5074781;28;19955;-54
2023/04/30 13:27:36;;;;;;;;;;;22.00;70.90;;;;;;5074904;28;20286;-54
2023/04/30 13:30:03;;;;;;;;;;;22.50;69.80;;;;;;5074868;28;19923;-54
2023/04/30 13:32:28;;;;;;;;;;;22.20;65.70;;;;;;5074575;28;20396;-53
2023/04/30 13:34:55;;;;;;;;;;;21.70;68.10;;;;;;5074771;28;19913;-53
2023/04/30 13:37:21;;;;;;;;;;;21.60;63.70;;;;;;5074920;28;19985;-53
2023/04/30 13:39:47;;;;;;;;;;;21.90;62.70;;;;;;5074960;28;19916;-53
2023/04/30 13:42:13;;;;;;;;;;;21.90;66.10;;;;;;5074728;28;19924;-53
2023/04/30 13:44:39;;;;;;;;;;;21.60;70.10;;;;;;5074765;28;20393;-53
2023/04/30 13:47:06;;;;;;;;;;;21.60;62.60;;;;;;5074703;28;19967;-53
2023/04/30 13:49:34;;;;;;;;;;;21.70;68.90;;;;;;5077559;28;20416;-53
2023/04/30 13:52:00;;;;;;;;;;;21.80;72.90;;;;;;5078817;28;19921;-53
2023/04/30 13:54:26;;;;;;;;;;;21.70;63.00;;;;;;5078936;28;19950;-53
2023/04/30 13:56:52;;;;;;;;;;;21.70;69.70;;;;;;5078775;28;19921;-53
2023/04/30 13:59:18;;;;;;;;;;;21.70;69.50;;;;;;5079191;28;19935;-53
2023/04/30 14:01:43;;;;;;;;;;;21.30;62.40;;;;;;5078373;28;19916;-53
2023/04/30 14:04:09;;;;;;;;;;;21.20;64.30;;;;;;5078666;28;19944;-53
2023/04/30 14:06:36;;;;;;;;;;;20.70;67.30;;;;;;5078642;28;19919;-53
2023/04/30 14:09:01;;;;;;;;;;;20.70;67.90;;;;;;5078262;28;19958;-53
2023/04/30 14:11:27;;;;;;;;;;;20.80;72.20;;;;;;5078513;28;19913;-53
2023/04/30 14:13:54;;;;;;;;;;;20.80;73.20;;;;;;5078400;28;19952;-53
2023/04/30 14:16:21;;;;;;;;;;;20.40;75.60;;;;;;5078255;28;20213;-53
2023/04/30 14:18:47;;;;;;;;;;;20.40;77.30;;;;;;5078269;28;19988;-53
2023/04/30 14:21:12;;;;;;;;;;;19.90;79.70;;;;;;5078254;28;20017;-53